»·PEaware :: UAL549 KSFO-KSEA

UAL549 :: KSFO-KSEA

FLIGHT INFORMATION

Flight Status: Arrived
Operator:
United Airlines
More flights by this operator :: More flights under this callsign
Pilot: Utku A. (15598)
Aircraft: BOEING 737-800
(B738)
More flights by this aircraft type
Origin: KSFO San Francisco Intl
United States
Destination: KSEA Seattle-Tacoma Intl
United States
More flights between these airports :: More routes between these airports
Route: TRUKN2 DEDHD RBL LMT HAWKZ6
File this flight plan on PilotEdge
Remarks:
Altitude:
(Current/Filed)
38,000ft
Speed:
(Current/Filed)
446kts
Departed: 06-Aug-18 04:53 PM
Arrived: 06-Aug-18 06:26 PM
Distance/Time
Traveled:
590nm/1:33
Distance/Time
To Go:
Arrived

Flight Plot

Page will automatically refresh every two minutes.

Flight plan parsing failed; only flown route is shown


Map Options




Map Legend


Flown Route
Filed Route
Departure Airport
Arrival Airport
Navaid (VOR, NDB)
Fix

Horizontal Profiles

Position Reports

Time Latitude Longitude Heading Altitude Ground
Speed
06-Aug-18 16:26 37.619183 -122.383509 291 30ft 0kts
06-Aug-18 16:27 37.619183 -122.383509 291 31ft 0kts
06-Aug-18 16:28 37.619183 -122.383509 291 31ft 0kts
06-Aug-18 16:29 37.619183 -122.383509 291 31ft 0kts
06-Aug-18 16:30 37.619183 -122.383509 291 31ft 0kts
06-Aug-18 16:31 37.619183 -122.383509 291 31ft 0kts
06-Aug-18 16:32 37.619183 -122.383509 291 31ft 0kts
06-Aug-18 16:33 37.619183 -122.383509 291 31ft 0kts
06-Aug-18 16:34 37.619183 -122.383509 291 31ft 0kts
06-Aug-18 16:35 37.619183 -122.383509 291 31ft 0kts
06-Aug-18 16:36 37.619183 -122.383509 291 31ft 0kts
06-Aug-18 16:37 37.619183 -122.383509 291 31ft 0kts
06-Aug-18 16:38 37.619183 -122.383509 291 31ft 0kts
06-Aug-18 16:39 37.619183 -122.383509 291 31ft 0kts
06-Aug-18 16:40 37.619183 -122.383509 291 31ft 0kts
06-Aug-18 16:41 37.619183 -122.383509 291 31ft 0kts
06-Aug-18 16:42 37.618798 -122.383126 355 31ft 2kts
06-Aug-18 16:43 37.618492 -122.383216 32 31ft 0kts
06-Aug-18 16:44 37.618493 -122.383216 32 31ft 0kts
06-Aug-18 16:45 37.618493 -122.383216 32 31ft 0kts
06-Aug-18 16:46 37.618781 -122.383022 28 31ft 6kts
06-Aug-18 16:47 37.619026 -122.380495 118 31ft 13kts
06-Aug-18 16:48 37.617061 -122.374792 118 18ft 16kts
06-Aug-18 16:49 37.614475 -122.368944 131 11ft 18kts
06-Aug-18 16:50 37.611694 -122.363134 117 8ft 12kts
06-Aug-18 16:51 37.610571 -122.359518 63 8ft 8kts
06-Aug-18 16:52 37.610888 -122.359103 28 8ft 0kts
06-Aug-18 16:53 37.611048 -122.358993 28 8ft 5kts
06-Aug-18 16:54 37.612879 -122.361173 297 8ft 57kts
06-Aug-18 16:55 37.632923 -122.399074 328 1681ft 161kts
06-Aug-18 16:56 37.663517 -122.357130 63 4159ft 193kts
06-Aug-18 16:57 37.687376 -122.294069 61 6240ft 221kts
06-Aug-18 16:58 37.719643 -122.221644 37 8467ft 262kts
06-Aug-18 16:59 37.794741 -122.199659 5 10477ft 306kts
06-Aug-18 17:00 37.881952 -122.186415 6 13182ft 326kts
06-Aug-18 17:01 37.973727 -122.171693 5 15905ft 341kts
06-Aug-18 17:02 38.069386 -122.156131 5 18493ft 355kts
06-Aug-18 17:03 38.165986 -122.140291 5 20749ft 369kts
06-Aug-18 17:04 38.269504 -122.123233 5 22781ft 385kts
06-Aug-18 17:05 38.377542 -122.113471 354 24538ft 397kts
06-Aug-18 17:06 38.488885 -122.122103 354 26157ft 410kts
06-Aug-18 17:07 38.604131 -122.130525 354 27650ft 422kts
06-Aug-18 17:08 38.722874 -122.139020 354 29050ft 433kts
06-Aug-18 17:09 38.842640 -122.147478 354 30736ft 433kts
06-Aug-18 17:10 38.961886 -122.155883 355 32458ft 428kts
06-Aug-18 17:11 39.079372 -122.164173 355 34020ft 422kts
06-Aug-18 17:12 39.193601 -122.172197 355 35377ft 419kts
06-Aug-18 17:13 39.309380 -122.180345 355 36588ft 417kts
06-Aug-18 17:14 39.424458 -122.188447 355 37672ft 415kts
06-Aug-18 17:15 39.541716 -122.196725 355 37945ft 434kts
06-Aug-18 17:16 39.665299 -122.205444 355 37944ft 458kts
06-Aug-18 17:17 39.792925 -122.214455 355 37937ft 459kts
06-Aug-18 17:18 39.920009 -122.223416 355 37939ft 460kts
06-Aug-18 17:19 40.047426 -122.232412 355 37940ft 460kts
06-Aug-18 17:20 40.171701 -122.220659 9 37938ft 463kts
06-Aug-18 17:21 40.276810 -122.194219 9 37935ft 463kts
06-Aug-18 17:22 40.423892 -122.157584 9 37924ft 463kts
06-Aug-18 17:23 40.549878 -122.126294 9 37912ft 463kts
06-Aug-18 17:24 40.675802 -122.095033 9 37913ft 463kts
06-Aug-18 17:25 40.781103 -122.068886 9 37912ft 463kts
06-Aug-18 17:26 40.928276 -122.032360 9 37985ft 463kts
06-Aug-18 17:27 41.054768 -122.000916 7 37989ft 464kts
06-Aug-18 17:28 41.175399 -121.970930 6 38001ft 456kts
06-Aug-18 17:29 41.279261 -121.945182 6 38109ft 459kts
06-Aug-18 17:30 41.404024 -121.914230 6 38126ft 457kts
06-Aug-18 17:31 41.528547 -121.883313 6 38118ft 457kts
06-Aug-18 17:32 41.653723 -121.852225 6 38153ft 458kts
06-Aug-18 17:33 41.778392 -121.821256 6 38181ft 458kts
06-Aug-18 17:34 41.904485 -121.789960 6 38184ft 469kts
06-Aug-18 17:35 42.031699 -121.758322 6 38182ft 466kts
06-Aug-18 17:36 42.156658 -121.731305 356 38190ft 462kts
06-Aug-18 17:37 42.282304 -121.755060 346 38184ft 457kts
06-Aug-18 17:38 42.406981 -121.783943 346 38183ft 456kts
06-Aug-18 17:39 42.531517 -121.812602 346 38182ft 454kts
06-Aug-18 17:40 42.655654 -121.841188 346 38183ft 454kts
06-Aug-18 17:41 42.779922 -121.869879 346 38183ft 454kts
06-Aug-18 17:42 42.903836 -121.898583 346 38181ft 454kts
06-Aug-18 17:43 43.029414 -121.927802 346 38184ft 465kts
06-Aug-18 17:44 43.154052 -121.956908 346 38180ft 465kts
06-Aug-18 17:45 43.281108 -121.986702 346 38166ft 467kts
06-Aug-18 17:46 43.409238 -122.016882 346 38144ft 469kts
06-Aug-18 17:47 43.537212 -122.047150 346 38128ft 470kts
06-Aug-18 17:48 43.665884 -122.077716 346 38128ft 471kts
06-Aug-18 17:49 43.794067 -122.108289 346 38128ft 470kts
06-Aug-18 17:50 43.922901 -122.139158 346 38128ft 470kts
06-Aug-18 17:51 44.051070 -122.170000 346 38127ft 470kts
06-Aug-18 17:52 44.172225 -122.199279 346 38118ft 470kts
06-Aug-18 17:53 44.300527 -122.230420 346 38111ft 469kts
06-Aug-18 17:54 44.428393 -122.261529 346 38098ft 469kts
06-Aug-18 17:55 44.556433 -122.292907 346 38073ft 468kts
06-Aug-18 17:56 44.681150 -122.323581 346 38057ft 468kts
06-Aug-18 17:57 44.808728 -122.355101 346 38071ft 468kts
06-Aug-18 17:58 44.936070 -122.386658 346 38056ft 453kts
06-Aug-18 17:59 45.053813 -122.415834 345 38074ft 428kts
06-Aug-18 18:00 45.165979 -122.443826 345 37821ft 416kts
06-Aug-18 18:01 45.279140 -122.472196 345 35139ft 414kts
06-Aug-18 18:02 45.391435 -122.500494 345 32307ft 420kts
06-Aug-18 18:03 45.508918 -122.530315 345 29165ft 436kts
06-Aug-18 18:04 45.623366 -122.559341 346 26693ft 417kts
06-Aug-18 18:05 45.735157 -122.587854 346 24324ft 406kts
06-Aug-18 18:06 45.845832 -122.615466 346 23687ft 412kts
06-Aug-18 18:07 45.955888 -122.642743 346 22860ft 401kts
06-Aug-18 18:08 46.064425 -122.669758 346 22276ft 396kts
06-Aug-18 18:09 46.162070 -122.691186 348 22103ft 397kts
06-Aug-18 18:10 46.271111 -122.712751 348 22100ft 396kts
06-Aug-18 18:11 46.380877 -122.726383 355 22101ft 400kts
06-Aug-18 18:12 46.493083 -122.729650 355 19913ft 407kts
06-Aug-18 18:13 46.605196 -122.733341 356 17077ft 397kts
06-Aug-18 18:14 46.710938 -122.736928 356 15368ft 366kts
06-Aug-18 18:15 46.806194 -122.712446 34 13695ft 351kts
06-Aug-18 18:16 46.879165 -122.622747 44 12101ft 334kts
06-Aug-18 18:17 46.942785 -122.531059 46 11549ft 327kts
06-Aug-18 18:18 47.008000 -122.446166 31 9999ft 296kts
06-Aug-18 18:19 47.074972 -122.389290 26 8299ft 267kts
06-Aug-18 18:20 47.133826 -122.343381 9 6082ft 240kts
06-Aug-18 18:21 47.196801 -122.326427 8 5374ft 221kts
06-Aug-18 18:22 47.255633 -122.312740 3 3951ft 213kts
06-Aug-18 18:23 47.307751 -122.312177 358 2825ft 172kts
06-Aug-18 18:24 47.350903 -122.312080 358 2072ft 147kts
06-Aug-18 18:25 47.391397 -122.311627 358 1291ft 143kts
06-Aug-18 18:26 47.431571 -122.311297 358 527ft 142kts
06-Aug-18 18:27 47.453418 -122.310482 21 420ft 13kts
06-Aug-18 18:28 47.455676 -122.307025 125 432ft 11kts
06-Aug-18 18:29 47.451286 -122.306252 181 416ft 15kts
06-Aug-18 18:30 47.448033 -122.305330 88 401ft 10kts
06-Aug-18 18:31 47.446873 -122.302130 15 393ft 1kts
06-Aug-18 18:32 47.447411 -122.301891 17 395ft 0kts
06-Aug-18 18:33 47.447411 -122.301892 17 395ft 0kts
06-Aug-18 18:34 47.447411 -122.301892 17 395ft 0kts

Navigation Log

Ident Type
Flight plan parsing failed, navigation log unavailable